Saturday, August 18, 2018, 1:54 PM EDT
Back to Local

KBWI, Baltimore-washington International

Location: Glen Burnie, MD, United States Lat: 39.167
Local Time: 1:54 PM EDT (17:54 GMT) Lon: -76.683
Time Zone: US/Eastern Elev: 147 ft

Show me the last for .
Show Decoded

2018-08-18 12:54 METAR KBWI 181654Z 27008KT 10SM FEW032 FEW120 SCT150 BKN180 BKN210 31/22 A2987
                 RMK AO2 SLP112 T03060222 =
2018-08-18 11:54 METAR KBWI 181554Z 26007KT 10SM FEW030 SCT150 BKN180 BKN210 29/22 A2989 RMK AO2
                 SLP119 T02890222 =
2018-08-18 10:54 METAR KBWI 181454Z 24008KT 10SM FEW020 FEW045 SCT150 BKN180 BKN220 28/22 A2990
                 RMK AO2 SLP122 T02830222 58006 =
2018-08-18 09:54 METAR KBWI 181354Z 24007KT 10SM FEW010 FEW110 SCT150 BKN180 BKN210 26/22 A2991
                 RMK AO2 SLP126 T02560222 =
2018-08-18 08:54 METAR KBWI 181254Z 25003KT 10SM FEW110 SCT130 BKN170 BKN220 24/23 A2992 RMK AO2
                 SLP129 T02440228 =
2018-08-18 07:54 METAR KBWI 181154Z 23004KT 10SM FEW110 SCT170 BKN220 BKN250 23/22 A2992 RMK AO2
                 SLP129 60006 70006 T02280222 10239 20222 50001 =
2018-08-18 06:54 METAR KBWI 181054Z 24003KT 8SM BCFG FEW110 BKN170 BKN190 BKN250 23/22 A2992 RMK
                 AO2 SLP131 T02280222 =
2018-08-18 05:54 METAR KBWI 180954Z 00000KT 10SM FEW060 BKN170 BKN200 BKN250 22/22 A2991 RMK AO2
                 SLP127 T02220222 =
2018-08-18 04:54 METAR KBWI 180854Z 21003KT 10SM FEW048 FEW080 BKN190 BKN210 BKN250 22/22 A2991
                 RMK AO2 SLP127 ACC W-NW 60006 T02220217 56009 =
2018-08-18 03:54 METAR KBWI 180754Z COR 00000KT 8SM FEW042 BKN085 BKN100 BKN180 OVC210 23/22
                 A2991 RMK AO2 PK WND 25027/0719 RAB19E53 TSB15E34 SLP128 P0006 T02280217 =
2018-08-18 03:37 METAR KBWI 180737Z 31005KT 5SM -RA BR FEW042 SCT060 OVC095 23/21 A2992 RMK AO2
                 PK WND 25027/0719 RAB19 TSB15E34 TS DSIPTD P0006 T02280211 =
2018-08-18 03:23 METAR KBWI 180723Z 27013G27KT 2SM +TSRA BR SCT047 BKN060CB BKN075 OVC180 23/21
                 A2995 RMK AO2 PK WND 25027/0719 RAB19 TSB15 OCNL LTGIC OHD TS OHD MOV NE P0001
                 T02330211 =
2018-08-18 03:16 METAR KBWI 180716Z 25011KT 7SM TS SCT036 BKN060CB BKN075 BKN180 OVC250 24/22
                 A2994 RMK AO2 TSB15 OCNL LTGIC SW-NW TS SW-NW MOV NE T02390217 =
2018-08-18 02:54 METAR KBWI 180654Z 24003KT 10SM FEW048 SCT075 BKN180 BKN250 24/22 A2992 RMK AO2
                 SLP131 OCNL LTGICCC DSNT NE AND DSNT SW-W CB DSNT NE AND DSNT SW-W MOV NE
                 T02390217 =
2018-08-18 01:54 METAR KBWI 180554Z 00000KT 10SM FEW048 SCT130 BKN190 BKN250 24/21 A2994 RMK AO2
                 SLP137 OCNL LTGIC DSNT NE AND FRQ LTGICCC DSNT SW CB DSNT NE AND DSNT SW MOV NE
                 60000 T02390211 10272 20233 58003 =
2018-08-18 00:54 METAR KBWI 180454Z 32004KT 10SM FEW048 FEW095 SCT230 BKN250 24/22 A2995 RMK AO2
                 SLP142 OCNL LTGIC DSNT N-NE CB DSNT N-NE MOV NE T02390217 403440233 =
2018-08-17 23:54 METAR KBWI 180354Z COR 30004KT 10SM FEW046 FEW120 BKN230 BKN250 24/21 A2995 RMK
                 AO2 SLP139 OCNL LTGIC DSNT N-NE CB DSNT N-NE MOV NE T02440211 =
2018-08-17 22:54 METAR KBWI 180254Z 23003KT 10SM SCT120 BKN250 25/21 A2995 RMK AO2 SLP139 60000
                 T02500211 58001 =
2018-08-17 21:54 METAR KBWI 180154Z 00000KT 10SM SCT120 BKN250 25/21 A2996 RMK AO2 SLP142
                 T02500211 =
2018-08-17 20:54 METAR KBWI 180054Z 23004KT 10SM FEW055 SCT120 BKN250 27/21 A2996 RMK AO2 RAE11
                 SLP142 P0000 T02670206 =
2018-08-17 19:54 METAR KBWI 172354Z 26007KT 10SM -RA FEW040 SCT055 BKN120 BKN250 27/23 A2995 RMK
                 AO2 RAB35 SLP141 P0000 60000 T02720233 10344 20272 55002 =
2018-08-17 18:54 METAR KBWI 172254Z 21005KT 10SM FEW050 SCT110 BKN160 OVC250 31/23 A2995 RMK AO2
                 SLP140 T03060233 =
2018-08-17 17:54 METAR KBWI 172154Z 20006KT 10SM FEW050 SCT110 BKN160 OVC250 31/23 A2995 RMK AO2
                 SLP140 T03110233 =
2018-08-17 16:54 METAR KBWI 172054Z 21007KT 10SM FEW050 SCT110 BKN160 BKN250 32/22 A2996 RMK AO2
                 SLP143 T03220222 56015 =
2018-08-17 15:54 METAR KBWI 171954Z 19009G17KT 10SM SCT045 SCT160 BKN250 33/22 A2996 RMK AO2
                 SLP144 T03330217 =
2018-08-17 14:54 METAR KBWI 171854Z VRB04KT 10SM SCT044 SCT110 SCT160 SCT250 33/23 A2997 RMK AO2
                 SLP149 T03330233 =

Support USWX by starting your Amazon purchase here.